Weather observations for the past three days for
Marshall Memorial Municipal Airport
Metric (Imperial)
Date Time (cdt) Wind (kph) Vis. (km) Weather Sky Cond. Temperature (ºC) Relative Humidity Wind Chill (°C) Heat Index (°C) Pressure Precipitation (cm)
Air Dwpt 6 hour altimeter (cm) sea level (mb) 1 hr 3 hr 6 hr
Max. Min.
10 06:55 N 11 16.09 Overcast OVC100 12 2 51% 76.48 0.0
10 06:35 NE 13 16.09 Mostly Cloudy BKN100 BKN120 12 2 51% 76.45 0.0
10 06:15 N 15 16.09 Mostly Cloudy SCT100 BKN120 12 2 51% 76.43 0.0
10 05:55 N 13 16.09 Partly Cloudy SCT100 12 2 51% 76.43 0.0
10 05:35 N 13 16.09 Partly Cloudy SCT100 12 2 51% 76.38 0.0
10 05:15 N 15 16.09 Partly Cloudy SCT100 SCT120 13 2 47% 76.35 0.0
10 04:55 N 15 16.09 Overcast OVC100 13 3 51% 76.33 0.0
10 04:35 N 15 16.09 Overcast OVC100 13 3 51% 76.33 0.0
10 04:15 N 15 16.09 Overcast OVC100 14 4 51% 76.3 0.0
10 03:55 N 15 16.09 Overcast OVC100 15 4 48% 76.3 0.0
10 03:35 N 17 16.09 Overcast OVC110 15 5 51% 76.25 0.0
10 03:15 N 20 G 26 16.09 Overcast OVC110 15 7 59% 76.23 0.0
10 02:55 N 15 16.09 Overcast OVC110 15 6 55% 76.2 0.0
10 02:35 NE 17 16.09 Overcast OVC110 15 7 59% 76.17 0.0
10 02:15 NE 11 16.09 Overcast SCT090 OVC110 15 7 59% 76.17 0.0
10 01:55 NE 13 16.09 Light Rain OVC100 16 7 55% 76.17 0.0
10 01:35 N 11 16.09 Overcast OVC100 16 9 63% 76.23 0.0
10 01:15 Calm 16.09 Mostly Cloudy BKN100 16 10 68% 76.17 0.0
10 00:55 Calm 16.09 Mostly Cloudy BKN110 16 9 63% 76.12 0.0
10 00:35 Calm 16.09 Overcast OVC110 16 9 63% 76.12 0.0
10 00:15 Calm 16.09 Overcast OVC110 17 8 56% 76.1 0.0
09 23:55 NE 11 16.09 Overcast OVC110 17 8 56% 76.05 0.0
09 23:35 NE 13 16.09 Mostly Cloudy BKN120 17 8 56% 76.05 0.0
09 23:15 NE 15 16.09 Mostly Cloudy BKN120 17 8 56% 76.02 0.0
09 22:55 N 19 16.09 Mostly Cloudy BKN120 17 8 56% 76 0.0
09 22:35 N 15 16.09 Partly Cloudy SCT110 17 8 56% 76 0.0
09 22:15 N 15 G 26 16.09 Mostly Cloudy BKN110 18 8 52% 75.95 0.0
09 21:55 N 7 16.09 Mostly Cloudy BKN110 19 10 56% 75.95 0.0
09 21:35 N 11 16.09 Overcast OVC110 18 12 68% 75.87 0.0
09 21:15 Calm 16.09 Overcast BKN100 OVC120 18 12 68% 75.87 0.0
09 20:55 N 6 16.09 Overcast BKN100 OVC120 18 12 68% 75.82 0.0
09 20:35 NE 9 16.09 Overcast OVC110 18 12 68% 75.77 0.0
09 20:15 N 15 16.09 Mostly Cloudy BKN120 18 13 73% 75.74 0.0
09 19:55 N 15 16.09 Mostly Cloudy BKN110 19 13 68% 75.74 0.0
09 19:35 N 13 16.09 Light Rain BKN100 19 13 68% 75.72 0.0
09 19:15 N 13 16.09 Light Rain SCT075 OVC090 20 13 64% 75.72 0.0
09 18:55 NW 33 G 43 16.09 Overcast and Breezy SCT080 BKN100 OVC120 24 11 44% 25 75.69 0.0
09 18:35 SW 9 16.09 Mostly Cloudy BKN110 25 11 42% 26 75.59 0.0
09 18:15 SW 13 16.09 Partly Cloudy SCT110 26 11 39% 26 75.59 0.0
09 17:55 SW 20 G 30 16.09 Partly Cloudy SCT120 27 11 37% 27 75.59 0.0
09 17:35 SW 17 16.09 Partly Cloudy SCT100 SCT120 27 11 37% 27 75.59 0.0
09 17:15 S 19 G 26 16.09 Fair CLR 26 12 42% 26 75.59 0.0
09 16:55 SW 19 G 26 16.09 Fair CLR 27 12 39% 27 75.59 0.0
09 16:35 SW 13 16.09 Fair CLR 27 10 34% 27 75.59 0.0
09 16:15 SW 17 G 26 16.09 Fair CLR 27 9 32% 27 75.59 0.0
09 15:55 W 20 G 28 16.09 Fair CLR 27 9 32% 27 75.62 0.0
09 15:35 SW 19 16.09 Fair CLR 27 10 34% 27 75.62 0.0
09 15:15 SW 13 16.09 Fair CLR 27 11 37% 27 75.64 0.0
09 14:55 SW 11 16.09 Fair CLR 26 11 39% 26 75.64 0.0
09 14:35 SW 9 16.09 Fair CLR 26 11 39% 26 75.67 0.0
09 14:15 W 11 16.09 Fair CLR 26 11 39% 26 75.69 0.0
09 13:55 W 9 16.09 Fair CLR 26 12 42% 26 75.69 0.0
09 13:35 SW 11 16.09 Fair CLR 25 12 44% 26 75.69 0.0
09 13:15 Calm 16.09 Fair CLR 25 12 44% 26 75.72 0.0
09 12:55 Calm 16.09 Fair CLR 24 11 44% 25 75.74 0.0
09 12:35 Calm 16.09 Fair CLR 24 12 47% 25 75.74 0.0
09 12:15 Calm 16.09 Fair CLR 23 12 50% 75.77 0.0
09 11:55 Calm 16.09 Fair CLR 23 11 47% 75.77 0.0
09 11:35 W 11 16.09 Fair CLR 22 11 50% 75.77 0.0
09 11:15 W 15 16.09 Fair CLR 21 12 57% 75.74 0.0
09 10:55 W 13 16.09 Fair CLR 21 12 57% 75.74 0.0
09 10:35 W 15 G 28 16.09 Fair CLR 20 12 60% 75.74 0.0
09 10:15 W 13 16.09 Fair CLR 19 13 68% 75.74 0.0
09 09:55 W 17 G 30 16.09 Fair CLR 18 13 73% 75.74 0.0
09 09:35 SW 17 G 26 16.09 Fair CLR 17 13 77% 75.74 0.0
09 09:15 W 17 16.09 Fair CLR 16 13 83% 75.74 0.0
09 08:55 W 13 16.09 Fair CLR 15 14 94% 75.74 0.0
09 08:35 SW 15 16.09 Fair CLR 13 13 100% 75.72 0.0
09 08:15 SW 15 16.09 Fair CLR 13 13 100% 75.72 0.0
09 07:55 SW 13 16.09 Fair CLR 12 12 100% 75.72 0.0
09 07:35 SW 7 16.09 Fair CLR 12 12 100% 75.69 0.0
09 07:15 SW 6 16.09 Fair CLR 11 11 100% 75.67 0.0
09 06:55 Calm 11.27 Fair CLR 11 11 100% 75.64 0.0
09 06:35 SW 7 11.27 Fair CLR 11 11 100% 75.67 0.0
09 06:15 SW 7 8.05 Fog/Mist SCT002 11 11 100% 75.64 0.0
09 05:55 SW 9 4.02 Fog/Mist OVC002 11 11 100% 75.64 0.0
09 05:35 SW 7 1.61 Fog/Mist OVC002 11 11 100% 75.67 0.0
09 05:15 SW 9 1.21 Fog/Mist OVC002 11 11 100% 75.67 0.0
09 04:55 SW 11 0.80 Fog OVC002 11 11 100% 75.64 0.0
09 04:35 SW 11 1.21 Fog/Mist OVC002 11 11 100% 75.64 0.0
09 04:15 SW 9 0.80 Fog OVC002 11 11 100% 75.67 0.0
09 03:55 SW 11 0.40 Fog OVC002 11 11 100% 75.67 0.0
09 03:35 SW 11 0.80 Rain OVC002 11 11 100% 75.67 0.0
09 03:15 SW 11 0.40 Drizzle OVC002 11 11 100% 75.64 0.0
09 02:55 SW 11 0.40 Light Rain OVC002 11 11 100% 75.64 0.0
09 02:35 SW 11 0.80 Fog OVC002 11 11 100% 75.64 0.0
09 02:15 SW 9 0.40 Drizzle OVC002 11 11 100% 75.64 0.0
09 01:55 Calm 0.40 Light Drizzle OVC002 11 11 100% 75.67 0.0
09 01:35 Calm 0.40 Drizzle OVC002 11 11 100% 75.67 0.0
09 01:15 Calm 0.40 Light Drizzle OVC002 11 11 100% 75.67 0.0
09 00:55 Calm 0.40 Drizzle OVC002 11 11 100% 75.67 0.0
09 00:35 Calm 0.40 Fog OVC002 10 10 100% 75.69 0.0
09 00:15 Calm 0.40 Fog OVC002 11 11 100% 75.69 0.0
08 23:55 Calm 0.40 Fog OVC002 11 11 100% 75.72 0.0
08 23:35 Calm 1.21 Fog/Mist OVC002 11 11 100% 75.72 0.0
08 23:15 Calm 0.40 Fog OVC002 11 11 100% 75.74 0.0
08 22:55 Calm 0.40 Fog OVC002 11 11 100% 75.74 0.0
08 22:35 Calm 0.40 Fog OVC002 11 11 100% 75.74 0.0
08 22:15 Calm 0.40 Fog OVC002 12 12 100% 75.72 0.0
08 21:55 Calm 0.40 Fog OVC002 12 12 100% 75.72 0.0
08 21:35 Calm 1.21 Fog/Mist VV005 12 12 100% 75.69 0.0
08 21:15 Calm 11.27 Fair CLR 13 13 100% 75.69 0.0
08 20:55 SE 6 16.09 Fair CLR 13 13 100% 75.67 0.0
08 20:35 SE 9 16.09 Fair CLR 13 13 100% 75.67 0.0
08 20:15 SE 6 16.09 Fair CLR 14 13 94% 75.62 0.0
08 19:55 Calm 16.09 Fair CLR 15 14 94% 75.62 0.0
08 19:35 Calm 16.09 Partly Cloudy SCT110 15 14 94% 75.62 0.0
08 19:15 SE 11 16.09 Overcast SCT075 OVC100 15 15 100% 75.57 0.0
08 18:55 SE 13 16.09 Light Rain OVC085 15 15 100% 75.57 0.0 0.03
08 18:35 SE 13 16.09 Rain OVC085 15 15 100% 75.62 0.0
08 18:15 S 11 16.09 Overcast OVC085 15 15 100% 75.64 0.0
08 17:55 Calm 16.09 Overcast SCT039 SCT050 OVC075 16 14 88% 75.64 0.0
08 17:35 Calm 16.09 Light Rain SCT042 SCT050 OVC075 16 14 88% 75.67 0.0
08 17:15 Calm 16.09 Thunderstorm Light Rain in Vicinity SCT055 BKN070 OVC090 16 14 88% 75.67 0.0
08 16:55 Calm 16.09 Mostly Cloudy SCT045 SCT070 BKN090 16 13 83% 75.69 0.0
08 16:35 Calm 16.09 Light Rain OVC090 16 13 83% 75.72 0.0
08 16:15 Calm 16.09 Overcast OVC090 16 13 83% 75.69 0.0
08 15:55 Calm 16.09 Overcast SCT033 SCT040 OVC090 16 13 83% 75.69 0.0
08 15:35 Calm 16.09 Light Rain SCT035 SCT050 BKN090 16 13 83% 75.72 0.0
08 15:15 Calm 16.09 Light Rain BKN090 16 13 83% 75.72 0.0
08 14:55 Calm 16.09 Overcast SCT028 SCT034 OVC090 16 13 83% 75.74 0.0 0.03
08 14:35 Calm 16.09 Light Rain SCT031 BKN039 OVC090 15 13 88% 75.74 0.0
08 14:15 W 7 16.09 Light Rain SCT037 OVC090 15 13 88% 75.77 0.0
08 13:55 S 7 16.09 Light Drizzle SCT040 SCT070 OVC090 15 13 88% 75.77 0.0
08 13:35 S 9 16.09 Light Rain SCT042 SCT050 OVC090 15 12 82% 75.79 0.0
08 13:15 S 7 16.09 Light Rain SCT041 SCT060 OVC090 15 12 82% 75.79 0.0
08 12:55 W 9 16.09 Light Rain SCT070 OVC090 16 11 72% 75.84 0.0
08 12:35 SW 7 16.09 Mostly Cloudy BKN100 16 10 68% 75.82 0.0
08 12:15 SW 9 16.09 Partly Cloudy SCT110 16 10 68% 75.82 0.0
08 11:55 W 9 16.09 Mostly Cloudy BKN110 15 10 72% 75.84 0.0
08 11:35 SW 9 16.09 Mostly Cloudy BKN110 15 10 72% 75.84 0.0
08 11:15 SW 9 16.09 Light Rain BKN110 15 10 72% 75.84 0.0
08 10:55 SW 9 16.09 Partly Cloudy SCT090 SCT110 15 10 72% 75.87 0.0
08 10:35 S 11 16.09 Light Rain SCT037 SCT065 BKN080 14 10 77% 75.87 0.0
08 10:15 Calm 16.09 Overcast OVC090 14 10 77% 75.87 0.0
08 09:55 Calm 16.09 Overcast BKN090 OVC110 13 9 77% 75.9 0.0
08 09:35 Calm 16.09 Overcast OVC100 13 9 77% 75.9 0.0
08 09:15 Calm 16.09 Overcast OVC100 13 9 77% 75.9 0.0
08 08:55 S 11 16.09 Overcast OVC090 13 8 72% 75.9 0.0
08 08:35 SW 6 16.09 Light Rain OVC090 13 8 72% 75.92 0.0
08 08:15 SW 9 16.09 Overcast OVC110 13 8 72% 75.9 0.0
08 07:55 Calm 16.09 Light Rain SCT070 SCT090 OVC110 13 8 72% 75.9 0.0
08 07:35 Calm 16.09 Overcast OVC110 12 7 72% 75.9 0.0
08 07:15 Calm 16.09 Overcast OVC110 12 7 72% 75.87 0.0
08 06:55 Calm 16.09 Overcast OVC110 12 7 72% 75.84 0.0
08 06:35 Calm 16.09 Mostly Cloudy BKN120 12 7 72% 75.84 0.0
08 06:15 Calm 16.09 Fair CLR 11 7 77% 75.79 0.0
08 05:55 Calm 16.09 Fair CLR 11 7 77% 75.79 0.0
08 05:35 SW 7 16.09 Fair CLR 11 7 77% 75.79 0.0
08 05:15 SW 6 16.09 Fair CLR 12 7 72% 75.82 0.0
08 04:55 SW 9 16.09 Fair CLR 12 7 72% 75.79 0.0
08 04:35 SW 15 16.09 Fair CLR 12 7 72% 75.79 0.0
08 04:15 SW 15 16.09 Fair CLR 12 7 72% 75.79 0.0
08 03:55 S 13 16.09 Fair CLR 12 7 72% 75.79 0.0
08 03:35 S 11 16.09 Fair CLR 12 7 72% 75.82 0.0
08 03:15 SW 11 16.09 Fair CLR 12 7 72% 75.82 0.0
08 02:55 SW 13 16.09 Fair CLR 12 7 72% 75.84 0.0
08 02:35 S 11 16.09 Fair CLR 12 7 72% 75.84 0.0
08 02:15 S 11 16.09 Fair CLR 12 7 72% 75.87 0.0
08 01:55 SW 11 16.09 Fair CLR 12 7 72% 75.9 0.0
08 01:35 S 13 16.09 Fair CLR 12 7 72% 75.9 0.0
08 01:15 S 15 16.09 Fair CLR 13 7 67% 75.92 0.0
08 00:55 S 13 16.09 Fair CLR 13 7 67% 75.92 0.0
08 00:35 S 13 16.09 Fair CLR 13 7 67% 75.92 0.0
08 00:15 S 13 16.09 Fair CLR 13 7 67% 75.92 0.0
07 23:55 S 11 16.09 Fair CLR 13 7 67% 75.92 0.0
07 23:35 S 15 16.09 Fair CLR 14 7 63% 75.95 0.0
07 23:15 S 17 16.09 Fair CLR 14 7 63% 75.95 0.0
07 22:55 S 13 16.09 Fair CLR 14 7 63% 75.95 0.0
07 22:35 S 11 16.09 Fair CLR 13 7 67% 75.95 0.0
07 22:15 S 11 16.09 Fair CLR 14 7 63% 75.95 0.0
07 21:55 S 11 16.09 Fair CLR 14 7 63% 75.92 0.0
07 21:35 S 11 16.09 Fair CLR 14 7 63% 75.92 0.0
07 21:15 S 11 16.09 Fair CLR 15 7 59% 75.92 0.0
07 20:55 S 11 16.09 Fair CLR 15 7 59% 75.92 0.0
07 20:35 S 11 16.09 Fair CLR 15 8 63% 75.92 0.0
07 20:15 S 9 16.09 Fair CLR 16 7 55% 75.92 0.0
07 19:55 S 9 16.09 Fair CLR 17 7 52% 75.92 0.0
07 19:35 S 11 16.09 Fair CLR 17 7 52% 75.92 0.0
07 19:15 SW 11 16.09 Fair CLR 18 7 49% 75.92 0.0
07 18:55 SW 15 G 26 16.09 Fair CLR 18 7 49% 75.92 0.0
07 18:35 SW 13 G 30 16.09 Fair CLR 18 7 49% 75.92 0.0
07 18:15 SW 20 G 30 16.09 Fair CLR 18 7 49% 75.92 0.0
07 17:55 SW 19 G 28 16.09 Fair CLR 18 7 49% 75.92 0.0
07 17:35 SW 22 G 30 16.09 Fair CLR 18 7 49% 75.95 0.0
07 17:15 SW 19 G 33 16.09 Partly Cloudy SCT055 18 6 46% 75.95 0.0
07 16:55 SW 24 G 35 16.09 Partly Cloudy SCT055 18 7 49% 75.97 0.0
07 16:35 SW 19 G 35 16.09 Partly Cloudy SCT055 18 6 46% 75.97 0.0
07 16:15 SW 19 16.09 Mostly Cloudy BKN055 18 6 46% 76 0.0
07 15:15 SW 28 G 35 16.09 Partly Cloudy SCT055 18 7 49% 76.05 0.0
07 14:55 SW 20 G 31 16.09 Partly Cloudy SCT055 SCT070 18 7 49% 76.05 0.0
07 14:35 SW 24 G 35 16.09 Mostly Cloudy SCT055 BKN065 18 7 49% 76.07 0.0
07 14:15 SW 20 G 37 16.09 Mostly Cloudy BKN055 BKN065 17 6 49% 76.12 0.0
07 13:55 SW 22 G 41 16.09 Mostly Cloudy SCT055 BKN075 17 6 49% 76.12 0.0
07 13:35 SW 28 G 37 16.09 Overcast BKN060 OVC065 17 6 49% 76.15 0.0
07 13:15 SW 19 G 41 16.09 Mostly Cloudy BKN050 BKN070 17 6 49% 76.15 0.0
07 12:55 SW 24 G 35 16.09 Partly Cloudy SCT050 17 6 49% 76.17 0.0
07 12:35 SW 24 G 39 11.27 Partly Cloudy SCT050 16 6 52% 76.2 0.0
07 12:15 SW 24 G 33 16.09 Partly Cloudy SCT050 16 6 52% 76.2 0.0
07 11:55 SW 30 G 44 16.09 Partly Cloudy SCT050 16 5 48% 76.23 0.0
07 11:35 W 28 G 37 16.09 Fair CLR 16 5 48% 76.25 0.0
07 11:15 SW 20 G 28 16.09 Fair CLR 16 6 52% 76.25 0.0
07 10:55 SW 20 G 31 16.09 Fair CLR 15 6 55% 76.25 0.0
07 10:35 SW 26 G 37 16.09 Fair CLR 15 5 51% 76.25 0.0
07 10:15 SW 19 G 30 16.09 Fair CLR 14 5 55% 76.28 0.0
07 09:55 SW 15 16.09 Fair CLR 13 5 59% 76.28 0.0
07 09:35 SW 17 16.09 Fair CLR 13 5 59% 76.28 0.0
07 09:15 SW 15 16.09 Fair CLR 12 4 58% 76.3 0.0
07 08:55 SW 15 16.09 Fair CLR 11 4 62% 76.3 0.0
07 08:35 SW 9 16.09 Fair CLR 10 3 62% 9 76.33 0.0
07 08:15 SW 13 16.09 Fair CLR 9 3 66% 7 76.33 0.0
07 07:55 SW 9 16.09 Fair CLR 8 3 71% 7 76.33 0.0
07 07:35 SW 11 16.09 Fair CLR 7 3 76% 5 76.33 0.0
Date Time (cdt) Wind (kph) Vis. (km) Weather Sky Cond. Air Dwpt Max. Min. Relative Humidity Wind Chill (°C) Heat Index (°C) altimeter (cm) sea level (mb) 1 hr 3 hr 6 hr
6 hour
Temperature (ºC) Pressure Precipitation (cm)